This is the latest recevied weather packets stored in our database for station/object N5ZP. If no packets are shown the sender has not sent any weather packets the latest 10 day(s).
| Time | Temp. | Humidity | Pressure | Rain* | Wind** | Luminosity | Snow |
|---|---|---|---|---|---|---|---|
| 1777132081 | 27.22° C | 75% | 1004.3 hPa | 0 mm | - | 251 W/m² | - |
| 1777131776 | 27.22° C | 75% | 1004.5 hPa | 0 mm | - | 459 W/m² | - |
| 1777131474 | 26.67° C | 77% | 1004.3 hPa | 0 mm | - | 302 W/m² | - |
| 1777131173 | 26.67° C | 77% | 1004.4 hPa | 0 mm | - | 439 W/m² | - |
| 1777130869 | 26.67° C | 77% | 1004.3 hPa | 0 mm | - | 290 W/m² | - |
| 1777130565 | 27.22° C | 75% | 1004.3 hPa | 0 mm | - | 289 W/m² | - |
| 1777130262 | 26.11° C | 79% | 1004.4 hPa | 0 mm | - | 562 W/m² | - |
| 1777129958 | 26.11° C | 79% | 1004.4 hPa | 0 mm | - | 259 W/m² | - |
| 1777129657 | 26.11° C | 81% | 1004.1 hPa | 0 mm | - | 272 W/m² | - |
| 1777129352 | 25.56° C | 83% | 1004.4 hPa | 0 mm | - | 252 W/m² | - |
| 1777129047 | 25.56° C | 82% | 1004.2 hPa | 0 mm | - | 154 W/m² | - |
| 1777128744 | 25° C | 83% | 1004.2 hPa | 0 mm | - | 235 W/m² | - |
| 1777128441 | 25° C | 84% | 1004 hPa | 0 mm | - | 218 W/m² | - |
| 1777128138 | 25° C | 83% | 1004.5 hPa | 0 mm | - | 96 W/m² | - |
| 1777127836 | 25° C | 85% | 1004.3 hPa | 0 mm | - | 98 W/m² | - |
| 1777127533 | 25° C | 84% | 1004.3 hPa | 0 mm | - | 117 W/m² | - |
| 1777127229 | 25.56° C | 83% | 1004.1 hPa | 0 mm | - | 182 W/m² | - |
| 1777126925 | 24.44° C | 87% | 1004.2 hPa | 0 mm | - | 407 W/m² | - |
| 1777126621 | 23.89° C | 90% | 1004.3 hPa | 0 mm | - | 366 W/m² | - |
| 1777126317 | 22.78° C | 90% | 1004.4 hPa | 0 mm | - | 238 W/m² | - |
| 1777126013 | 22.78° C | 90% | 1004.3 hPa | 0 mm | - | 128 W/m² | - |
| 1777125711 | 22.78° C | 90% | 1004.4 hPa | 0 mm | - | 129 W/m² | - |
| 1777125406 | 22.78° C | 90% | 1004.5 hPa | 0 mm | - | 126 W/m² | - |
| 1777125101 | 22.22° C | 92% | 1004.3 hPa | 0 mm | - | 173 W/m² | - |
| 1777124797 | 21.67° C | 92% | 1004.6 hPa | 0 mm | - | 154 W/m² | - |
* Rain latest hour (hover to see other rain measurements)
** Current wind speed in m/s (hover to see current wind gust speed)